sensor_id;sensor_type;location;lat;lon;timestamp;pressure;altitude;pressure_sealevel;temperature;humidity
19761;BME280;10039;42.632;23.408;2023-08-01T00:07:53;94668.88;;;23.09;58.34
19761;BME280;10039;42.632;23.408;2023-08-01T00:13:45;94636.97;;;22.71;59.05
19761;BME280;10039;42.632;23.408;2023-08-01T00:16:27;94614.97;;;22.48;59.71
19761;BME280;10039;42.632;23.408;2023-08-01T00:19:12;94676.56;;;22.72;59.16
19761;BME280;10039;42.632;23.408;2023-08-01T00:31:06;94657.50;;;22.72;59.53
19761;BME280;10039;42.632;23.408;2023-08-01T00:33:46;94655.53;;;22.67;59.19
19761;BME280;10039;42.632;23.408;2023-08-01T00:36:19;94654.28;;;22.47;59.85
19761;BME280;10039;42.632;23.408;2023-08-01T00:38:48;94660.72;;;22.66;59.49
19761;BME280;10039;42.632;23.408;2023-08-01T00:44:21;94643.91;;;22.51;59.32
19761;BME280;10039;42.632;23.408;2023-08-01T00:47:12;94621.41;;;22.39;59.62
19761;BME280;10039;42.632;23.408;2023-08-01T00:52:53;94613.97;;;22.23;59.72
19761;BME280;10039;42.632;23.408;2023-08-01T00:58:30;94653.78;;;22.32;60.45
19761;BME280;10039;42.632;23.408;2023-08-01T01:13:51;94597.59;;;21.79;61.66
19761;BME280;10039;42.632;23.408;2023-08-01T01:16:25;94605.50;;;21.77;61.51
19761;BME280;10039;42.632;23.408;2023-08-01T01:18:51;94634.97;;;22.12;61.18
19761;BME280;10039;42.632;23.408;2023-08-01T01:21:37;94592.41;;;21.76;61.38
19761;BME280;10039;42.632;23.408;2023-08-01T01:27:08;94580.72;;;21.53;61.69
19761;BME280;10039;42.632;23.408;2023-08-01T01:30:05;94595.34;;;21.67;61.78
19761;BME280;10039;42.632;23.408;2023-08-01T01:35:41;94604.09;;;21.29;63.84
19761;BME280;10039;42.632;23.408;2023-08-01T01:38:14;94603.13;;;21.38;63.30
19761;BME280;10039;42.632;23.408;2023-08-01T01:41:03;94628.94;;;21.64;63.34
19761;BME280;10039;42.632;23.408;2023-08-01T01:46:35;94608.63;;;21.54;62.87
19761;BME280;10039;42.632;23.408;2023-08-01T01:49:10;94590.56;;;21.46;62.39
19761;BME280;10039;42.632;23.408;2023-08-01T01:51:37;94577.72;;;21.35;62.61
19761;BME280;10039;42.632;23.408;2023-08-01T01:56:58;94582.66;;;21.37;62.72
19761;BME280;10039;42.632;23.408;2023-08-01T02:02:43;94637.59;;;21.73;61.70
19761;BME280;10039;42.632;23.408;2023-08-01T02:18:01;94630.25;;;21.90;61.90
19761;BME280;10039;42.632;23.408;2023-08-01T02:55:56;94607.25;;;21.17;62.97
19761;BME280;10039;42.632;23.408;2023-08-01T02:59:09;94568.22;;;20.98;62.96
19761;BME280;10039;42.632;23.408;2023-08-01T03:02:05;94583.47;;;20.90;63.45
19761;BME280;10039;42.632;23.408;2023-08-01T03:10:41;94631.22;;;21.18;63.40
19761;BME280;10039;42.632;23.408;2023-08-01T03:13:27;94592.31;;;20.90;63.10
19761;BME280;10039;42.632;23.408;2023-08-01T03:15:58;94604.22;;;21.04;63.18
19761;BME280;10039;42.632;23.408;2023-08-01T03:18:37;94638.34;;;21.10;63.22
19761;BME280;10039;42.632;23.408;2023-08-01T03:21:21;94587.81;;;20.76;63.54
19761;BME280;10039;42.632;23.408;2023-08-01T03:23:55;94600.97;;;20.94;63.43
19761;BME280;10039;42.632;23.408;2023-08-01T03:26:23;94621.28;;;21.10;63.79
19761;BME280;10039;42.632;23.408;2023-08-01T03:28:57;94623.50;;;21.06;63.31
19761;BME280;10039;42.632;23.408;2023-08-01T03:31:40;94620.56;;;21.09;63.71
19761;BME280;10039;42.632;23.408;2023-08-01T05:51:21;94647.50;;;23.35;56.48
19761;BME280;10039;42.632;23.408;2023-08-01T05:57:42;94633.91;;;23.24;55.23
19761;BME280;10039;42.632;23.408;2023-08-01T06:00:38;94652.63;;;23.55;55.07
19761;BME280;10039;42.632;23.408;2023-08-01T06:19:13;94636.63;;;24.62;53.19
19761;BME280;10039;42.632;23.408;2023-08-01T06:27:19;94634.38;;;25.13;49.57
19761;BME280;10039;42.632;23.408;2023-08-01T07:29:03;94573.47;;;26.60;46.25
19761;BME280;10039;42.632;23.408;2023-08-01T07:34:50;94607.78;;;27.32;46.52
19761;BME280;10039;42.632;23.408;2023-08-01T07:49:47;94561.59;;;27.48;42.80
19761;BME280;10039;42.632;23.408;2023-08-01T08:31:55;94570.28;;;29.08;40.62
19761;BME280;10039;42.632;23.408;2023-08-01T14:51:56;94197.31;;;33.35;30.29
19761;BME280;10039;42.632;23.408;2023-08-01T15:07:57;94172.53;;;32.22;32.21
19761;BME280;10039;42.632;23.408;2023-08-01T15:10:41;94167.03;;;32.48;32.45
19761;BME280;10039;42.632;23.408;2023-08-01T15:13:27;94176.50;;;32.72;31.82
19761;BME280;10039;42.632;23.408;2023-08-01T15:16:23;94178.28;;;32.33;32.14
19761;BME280;10039;42.632;23.408;2023-08-01T15:19:50;94137.19;;;31.87;32.98
19761;BME280;10039;42.632;23.408;2023-08-01T15:32:46;94108.50;;;32.42;31.25
19761;BME280;10039;42.632;23.408;2023-08-01T15:35:38;94113.63;;;32.19;31.23
19761;BME280;10039;42.632;23.408;2023-08-01T15:38:10;94113.38;;;32.08;32.73
19761;BME280;10039;42.632;23.408;2023-08-01T15:40:40;94110.28;;;32.04;34.22
19761;BME280;10039;42.632;23.408;2023-08-01T15:43:35;94109.63;;;31.70;31.71
19761;BME280;10039;42.632;23.408;2023-08-01T15:46:06;94123.78;;;32.00;32.57
19761;BME280;10039;42.632;23.408;2023-08-01T15:48:35;94115.75;;;31.95;32.60
19761;BME280;10039;42.632;23.408;2023-08-01T15:51:02;94114.78;;;31.83;32.99
19761;BME280;10039;42.632;23.408;2023-08-01T15:53:29;94154.56;;;32.14;32.40
19761;BME280;10039;42.632;23.408;2023-08-01T15:55:59;94130.50;;;32.23;33.31
19761;BME280;10039;42.632;23.408;2023-08-01T15:58:26;94126.56;;;32.17;34.03
19761;BME280;10039;42.632;23.408;2023-08-01T16:00:55;94113.25;;;32.32;32.48
19761;BME280;10039;42.632;23.408;2023-08-01T16:03:23;94110.44;;;32.23;32.65
19761;BME280;10039;42.632;23.408;2023-08-01T16:05:49;94122.53;;;32.27;33.12
19761;BME280;10039;42.632;23.408;2023-08-01T16:08:18;94160.44;;;32.17;32.29
19761;BME280;10039;42.632;23.408;2023-08-01T16:10:47;94140.59;;;32.12;34.60
19761;BME280;10039;42.632;23.408;2023-08-01T16:13:13;94159.41;;;32.39;33.23
19761;BME280;10039;42.632;23.408;2023-08-01T16:15:42;94120.09;;;32.31;31.85
19761;BME280;10039;42.632;23.408;2023-08-01T16:18:08;94158.28;;;32.69;34.96
19761;BME280;10039;42.632;23.408;2023-08-01T16:20:37;94121.66;;;32.51;33.61
19761;BME280;10039;42.632;23.408;2023-08-01T16:23:19;94122.13;;;32.57;34.01
19761;BME280;10039;42.632;23.408;2023-08-01T16:25:51;94118.91;;;32.61;34.13
19761;BME280;10039;42.632;23.408;2023-08-01T16:28:28;94136.75;;;32.24;32.37
19761;BME280;10039;42.632;23.408;2023-08-01T16:30:58;94118.19;;;31.74;32.52
19761;BME280;10039;42.632;23.408;2023-08-01T16:33:26;94132.50;;;31.97;34.84
19761;BME280;10039;42.632;23.408;2023-08-01T16:36:12;94153.09;;;32.29;34.90
19761;BME280;10039;42.632;23.408;2023-08-01T16:38:39;94156.31;;;32.35;35.04
19761;BME280;10039;42.632;23.408;2023-08-01T16:41:13;94130.50;;;32.07;34.08
19761;BME280;10039;42.632;23.408;2023-08-01T16:43:49;94123.84;;;32.10;35.80
19761;BME280;10039;42.632;23.408;2023-08-01T16:46:16;94126.69;;;32.02;35.39
19761;BME280;10039;42.632;23.408;2023-08-01T16:48:42;94136.56;;;31.96;35.97
19761;BME280;10039;42.632;23.408;2023-08-01T16:51:12;94127.94;;;31.92;35.91
19761;BME280;10039;42.632;23.408;2023-08-01T16:53:50;94126.47;;;31.91;35.40
19761;BME280;10039;42.632;23.408;2023-08-01T16:56:22;94159.69;;;32.00;34.68
19761;BME280;10039;42.632;23.408;2023-08-01T16:58:50;94165.63;;;31.80;35.28
19761;BME280;10039;42.632;23.408;2023-08-01T17:01:22;94127.72;;;31.22;36.37
19761;BME280;10039;42.632;23.408;2023-08-01T17:03:47;94131.16;;;31.30;36.90
19761;BME280;10039;42.632;23.408;2023-08-01T17:06:13;94131.50;;;31.34;37.18
19761;BME280;10039;42.632;23.408;2023-08-01T17:08:39;94131.16;;;31.30;37.11
19761;BME280;10039;42.632;23.408;2023-08-01T17:11:08;94168.59;;;31.40;37.24
19761;BME280;10039;42.632;23.408;2023-08-01T17:13:35;94157.38;;;31.38;37.83
19761;BME280;10039;42.632;23.408;2023-08-01T17:16:00;94156.50;;;31.36;37.91
19761;BME280;10039;42.632;23.408;2023-08-01T17:18:26;94167.63;;;31.45;37.61
19761;BME280;10039;42.632;23.408;2023-08-01T17:23:54;94143.44;;;31.12;36.87
19761;BME280;10039;42.632;23.408;2023-08-01T17:26:23;94160.44;;;31.01;37.72
19761;BME280;10039;42.632;23.408;2023-08-01T17:28:49;94138.91;;;30.75;36.67
19761;BME280;10039;42.632;23.408;2023-08-01T17:31:15;94140.38;;;30.76;37.10
19761;BME280;10039;42.632;23.408;2023-08-01T17:33:44;94155.56;;;30.60;37.86
19761;BME280;10039;42.632;23.408;2023-08-01T17:36:14;94176.09;;;30.74;37.97
19761;BME280;10039;42.632;23.408;2023-08-01T17:38:57;94139.31;;;30.40;36.99
19761;BME280;10039;42.632;23.408;2023-08-01T17:41:25;94156.78;;;30.35;36.89
19761;BME280;10039;42.632;23.408;2023-08-01T17:43:53;94143.41;;;29.92;38.02
19761;BME280;10039;42.632;23.408;2023-08-01T17:46:20;94181.66;;;30.20;37.40
19761;BME280;10039;42.632;23.408;2023-08-01T17:48:47;94154.00;;;29.95;38.33
19761;BME280;10039;42.632;23.408;2023-08-01T17:51:13;94178.44;;;30.06;38.47
19761;BME280;10039;42.632;23.408;2023-08-01T17:53:39;94195.13;;;30.08;38.79
19761;BME280;10039;42.632;23.408;2023-08-01T17:56:10;94173.88;;;29.86;37.61
19761;BME280;10039;42.632;23.408;2023-08-01T17:58:37;94171.91;;;29.65;38.02
19761;BME280;10039;42.632;23.408;2023-08-01T18:01:03;94178.38;;;29.45;38.52
19761;BME280;10039;42.632;23.408;2023-08-01T18:03:32;94178.19;;;29.20;38.62
19761;BME280;10039;42.632;23.408;2023-08-01T18:06:09;94201.47;;;29.19;38.85
19761;BME280;10039;42.632;23.408;2023-08-01T18:08:37;94197.22;;;28.81;38.49
19761;BME280;10039;42.632;23.408;2023-08-01T18:11:09;94192.59;;;28.68;40.32
19761;BME280;10039;42.632;23.408;2023-08-01T18:13:40;94192.25;;;28.64;40.08
19761;BME280;10039;42.632;23.408;2023-08-01T18:16:06;94207.22;;;28.56;39.71
19761;BME280;10039;42.632;23.408;2023-08-01T18:18:36;94186.31;;;28.46;40.49
19761;BME280;10039;42.632;23.408;2023-08-01T18:21:03;94218.59;;;28.60;40.59
19761;BME280;10039;42.632;23.408;2023-08-01T18:23:35;94174.94;;;28.34;40.93
19761;BME280;10039;42.632;23.408;2023-08-01T18:26:04;94175.13;;;28.29;39.71
19761;BME280;10039;42.632;23.408;2023-08-01T18:28:30;94202.47;;;28.49;40.88
19761;BME280;10039;42.632;23.408;2023-08-01T18:30:57;94192.56;;;28.46;40.18
19761;BME280;10039;42.632;23.408;2023-08-01T18:33:23;94226.81;;;28.53;39.50
19761;BME280;10039;42.632;23.408;2023-08-01T18:35:50;94185.09;;;28.11;38.92
19761;BME280;10039;42.632;23.408;2023-08-01T18:38:16;94185.03;;;27.96;40.20
19761;BME280;10039;42.632;23.408;2023-08-01T18:41:06;94202.63;;;28.01;39.83
19761;BME280;10039;42.632;23.408;2023-08-01T18:44:04;94228.56;;;27.92;39.00
19761;BME280;10039;42.632;23.408;2023-08-01T18:53:25;94209.09;;;27.27;39.30
19761;BME280;10039;42.632;23.408;2023-08-01T18:56:17;94196.63;;;27.19;40.17
19761;BME280;10039;42.632;23.408;2023-08-01T18:58:47;94189.97;;;26.94;39.78
19761;BME280;10039;42.632;23.408;2023-08-01T19:01:18;94195.34;;;26.99;39.47
19761;BME280;10039;42.632;23.408;2023-08-01T19:06:43;94218.81;;;27.28;41.24
19761;BME280;10039;42.632;23.408;2023-08-01T19:09:34;94213.84;;;27.27;41.92
19761;BME280;10039;42.632;23.408;2023-08-01T19:12:10;94213.97;;;27.41;41.58
19761;BME280;10039;42.632;23.408;2023-08-01T19:14:45;94195.50;;;27.42;40.76
19761;BME280;10039;42.632;23.408;2023-08-01T19:17:11;94222.47;;;27.58;41.41
19761;BME280;10039;42.632;23.408;2023-08-01T19:19:37;94232.25;;;27.67;40.95
19761;BME280;10039;42.632;23.408;2023-08-01T19:22:04;94242.41;;;27.79;40.97
19761;BME280;10039;42.632;23.408;2023-08-01T19:24:29;94218.81;;;27.56;41.64
19761;BME280;10039;42.632;23.408;2023-08-01T19:26:56;94218.19;;;27.70;41.31
19761;BME280;10039;42.632;23.408;2023-08-01T19:29:21;94215.59;;;27.65;40.97
19761;BME280;10039;42.632;23.408;2023-08-01T19:31:50;94232.91;;;27.80;41.44
19761;BME280;10039;42.632;23.408;2023-08-01T19:34:16;94239.84;;;27.81;41.61
19761;BME280;10039;42.632;23.408;2023-08-01T19:36:43;94212.25;;;27.59;41.24
19761;BME280;10039;42.632;23.408;2023-08-01T19:39:11;94223.06;;;27.37;41.49
19761;BME280;10039;42.632;23.408;2023-08-01T19:41:39;94214.59;;;27.27;42.37
19761;BME280;10039;42.632;23.408;2023-08-01T19:44:08;94217.69;;;27.24;41.34
19761;BME280;10039;42.632;23.408;2023-08-01T19:46:36;94202.38;;;27.08;41.53
19761;BME280;10039;42.632;23.408;2023-08-01T19:49:09;94248.09;;;27.33;42.00
19761;BME280;10039;42.632;23.408;2023-08-01T19:51:59;94232.19;;;27.11;42.01
19761;BME280;10039;42.632;23.408;2023-08-01T19:54:31;94224.47;;;26.69;42.17
19761;BME280;10039;42.632;23.408;2023-08-01T19:57:00;94227.41;;;26.71;42.74
19761;BME280;10039;42.632;23.408;2023-08-01T19:59:33;94220.53;;;26.57;42.90
19761;BME280;10039;42.632;23.408;2023-08-01T20:02:11;94256.53;;;26.81;42.89
19761;BME280;10039;42.632;23.408;2023-08-01T20:04:55;94270.72;;;26.72;43.95
19761;BME280;10039;42.632;23.408;2023-08-01T20:07:24;94218.56;;;26.31;44.14
19761;BME280;10039;42.632;23.408;2023-08-01T20:12:49;94239.75;;;26.18;44.46
19761;BME280;10039;42.632;23.408;2023-08-01T20:15:24;94253.91;;;26.42;44.26
19761;BME280;10039;42.632;23.408;2023-08-01T20:17:54;94238.50;;;26.06;45.02
19761;BME280;10039;42.632;23.408;2023-08-01T20:20:21;94264.25;;;26.23;45.29
19761;BME280;10039;42.632;23.408;2023-08-01T20:22:50;94288.25;;;26.30;45.53
19761;BME280;10039;42.632;23.408;2023-08-01T20:25:20;94253.88;;;26.09;45.48
19761;BME280;10039;42.632;23.408;2023-08-01T20:27:49;94281.31;;;26.29;45.82
19761;BME280;10039;42.632;23.408;2023-08-01T20:30:17;94268.69;;;26.14;45.70
19761;BME280;10039;42.632;23.408;2023-08-01T20:32:44;94280.19;;;26.12;45.70
19761;BME280;10039;42.632;23.408;2023-08-01T20:35:15;94268.94;;;25.90;45.15
19761;BME280;10039;42.632;23.408;2023-08-01T20:38:06;94293.13;;;25.99;46.16
19761;BME280;10039;42.632;23.408;2023-08-01T20:43:36;94252.22;;;25.80;46.11
19761;BME280;10039;42.632;23.408;2023-08-01T20:46:06;94248.81;;;25.74;46.55
19761;BME280;10039;42.632;23.408;2023-08-01T20:48:39;94251.97;;;25.65;46.67
19761;BME280;10039;42.632;23.408;2023-08-01T20:51:08;94298.59;;;25.99;46.93
19761;BME280;10039;42.632;23.408;2023-08-01T20:53:36;94273.75;;;25.71;46.78
19761;BME280;10039;42.632;23.408;2023-08-01T20:56:03;94281.84;;;25.76;46.44
19761;BME280;10039;42.632;23.408;2023-08-01T20:58:36;94276.47;;;25.71;46.85
19761;BME280;10039;42.632;23.408;2023-08-01T21:01:06;94297.88;;;25.85;46.49
19761;BME280;10039;42.632;23.408;2023-08-01T21:03:33;94287.53;;;25.78;46.92
19761;BME280;10039;42.632;23.408;2023-08-01T21:05:59;94262.03;;;25.44;47.54
19761;BME280;10039;42.632;23.408;2023-08-01T21:08:25;94265.00;;;25.46;47.09
19761;BME280;10039;42.632;23.408;2023-08-01T21:10:54;94271.50;;;25.30;47.10
19761;BME280;10039;42.632;23.408;2023-08-01T21:13:30;94304.09;;;25.41;47.40
19761;BME280;10039;42.632;23.408;2023-08-01T21:15:57;94295.66;;;25.39;47.20
19761;BME280;10039;42.632;23.408;2023-08-01T21:18:23;94300.75;;;25.48;47.23
19761;BME280;10039;42.632;23.408;2023-08-01T21:20:59;94243.81;;;25.21;47.70
19761;BME280;10039;42.632;23.408;2023-08-01T21:23:25;94255.94;;;25.25;48.04
19761;BME280;10039;42.632;23.408;2023-08-01T21:25:53;94256.31;;;25.16;47.88
19761;BME280;10039;42.632;23.408;2023-08-01T21:31:09;94297.75;;;25.20;48.24
19761;BME280;10039;42.632;23.408;2023-08-01T21:33:35;94291.66;;;25.27;49.19
19761;BME280;10039;42.632;23.408;2023-08-01T21:36:01;94260.06;;;25.01;49.01
19761;BME280;10039;42.632;23.408;2023-08-01T21:38:27;94261.94;;;25.05;49.17
19761;BME280;10039;42.632;23.408;2023-08-01T21:40:54;94270.31;;;24.95;48.49
19761;BME280;10039;42.632;23.408;2023-08-01T21:43:24;94262.63;;;24.93;48.64
19761;BME280;10039;42.632;23.408;2023-08-01T21:45:56;94273.50;;;25.11;48.51
19761;BME280;10039;42.632;23.408;2023-08-01T21:48:28;94286.06;;;25.20;48.27
19761;BME280;10039;42.632;23.408;2023-08-01T21:50:55;94265.28;;;25.17;48.15
19761;BME280;10039;42.632;23.408;2023-08-01T21:53:22;94290.84;;;25.45;48.69
19761;BME280;10039;42.632;23.408;2023-08-01T21:55:52;94254.59;;;25.13;48.77
19761;BME280;10039;42.632;23.408;2023-08-01T21:58:21;94254.38;;;24.99;48.63
19761;BME280;10039;42.632;23.408;2023-08-01T22:00:54;94253.31;;;25.01;48.52
19761;BME280;10039;42.632;23.408;2023-08-01T22:03:24;94264.31;;;24.96;49.00
19761;BME280;10039;42.632;23.408;2023-08-01T22:06:10;94260.50;;;24.86;48.89
19761;BME280;10039;42.632;23.408;2023-08-01T22:09:05;94262.03;;;25.00;49.47
19761;BME280;10039;42.632;23.408;2023-08-01T22:11:55;94258.56;;;25.00;49.02
19761;BME280;10039;42.632;23.408;2023-08-01T22:18:39;94257.03;;;24.86;49.99
19761;BME280;10039;42.632;23.408;2023-08-01T22:24:04;94244.97;;;24.81;49.83
19761;BME280;10039;42.632;23.408;2023-08-01T22:29:36;94259.56;;;24.84;50.44
19761;BME280;10039;42.632;23.408;2023-08-01T22:32:09;94248.97;;;24.62;50.61
19761;BME280;10039;42.632;23.408;2023-08-01T22:34:36;94260.34;;;24.66;50.52
19761;BME280;10039;42.632;23.408;2023-08-01T22:37:10;94281.69;;;24.99;50.28
19761;BME280;10039;42.632;23.408;2023-08-01T22:39:40;94249.69;;;24.44;50.87
19761;BME280;10039;42.632;23.408;2023-08-01T22:42:06;94251.88;;;24.51;51.34
19761;BME280;10039;42.632;23.408;2023-08-01T22:44:33;94247.50;;;24.61;50.58
19761;BME280;10039;42.632;23.408;2023-08-01T22:47:02;94256.72;;;24.58;51.36
19761;BME280;10039;42.632;23.408;2023-08-01T22:49:29;94249.56;;;24.55;50.76
19761;BME280;10039;42.632;23.408;2023-08-01T22:51:55;94253.78;;;24.56;51.75
19761;BME280;10039;42.632;23.408;2023-08-01T22:54:22;94253.88;;;24.50;50.92
19761;BME280;10039;42.632;23.408;2023-08-01T22:56:48;94283.81;;;24.56;51.50
19761;BME280;10039;42.632;23.408;2023-08-01T22:59:14;94256.34;;;24.30;51.69
19761;BME280;10039;42.632;23.408;2023-08-01T23:01:46;94286.41;;;24.24;52.03
19761;BME280;10039;42.632;23.408;2023-08-01T23:04:16;94288.50;;;24.18;52.75
19761;BME280;10039;42.632;23.408;2023-08-01T23:06:42;94260.97;;;23.98;52.72
19761;BME280;10039;42.632;23.408;2023-08-01T23:09:14;94266.44;;;23.98;52.86
19761;BME280;10039;42.632;23.408;2023-08-01T23:11:45;94310.03;;;24.22;52.88
19761;BME280;10039;42.632;23.408;2023-08-01T23:17:37;94261.09;;;23.63;53.33
19761;BME280;10039;42.632;23.408;2023-08-01T23:20:07;94255.53;;;23.50;53.57
19761;BME280;10039;42.632;23.408;2023-08-01T23:22:48;94260.75;;;23.48;53.75
19761;BME280;10039;42.632;23.408;2023-08-01T23:25:26;94279.78;;;23.54;54.06
19761;BME280;10039;42.632;23.408;2023-08-01T23:27:54;94284.88;;;23.63;54.14
19761;BME280;10039;42.632;23.408;2023-08-01T23:30:20;94265.31;;;23.40;54.28
19761;BME280;10039;42.632;23.408;2023-08-01T23:32:51;94267.44;;;23.47;54.05
19761;BME280;10039;42.632;23.408;2023-08-01T23:35:23;94269.72;;;23.43;54.39
19761;BME280;10039;42.632;23.408;2023-08-01T23:37:50;94291.31;;;23.65;54.19
19761;BME280;10039;42.632;23.408;2023-08-01T23:40:21;94262.56;;;23.64;53.93
19761;BME280;10039;42.632;23.408;2023-08-01T23:42:49;94269.72;;;23.67;53.49
19761;BME280;10039;42.632;23.408;2023-08-01T23:45:16;94280.28;;;23.76;53.20
19761;BME280;10039;42.632;23.408;2023-08-01T23:47:43;94336.25;;;24.06;53.84
19761;BME280;10039;42.632;23.408;2023-08-01T23:50:12;94336.41;;;24.14;53.53
19761;BME280;10039;42.632;23.408;2023-08-01T23:52:47;94277.81;;;23.78;53.27
19761;BME280;10039;42.632;23.408;2023-08-01T23:55:20;94290.41;;;23.57;53.55
19761;BME280;10039;42.632;23.408;2023-08-01T23:58:16;94279.03;;;23.53;53.97
